Pagrindinis puslapis
METAR-TAF:

METAR-TAF

Oro uostai :

Seinejokis-Ilmajoki, Suomija

platuma: 62-41-37N, ilguma: 022-49-55E, Aukštis: 91 m

Dabartinis oras

Ataskaita buvo paskelbta 51 minutes, ne 02:20 UTC
Vėjas 4 kt iš Pietų/Pietryčių
Temperatūra 10°C
Drėgmė 93%
Slėgis 1008 hPa
Matomumas 10 km arba daugiau
nėra debesų žemiau 1500 m ir nėra kamuolinių lietaus debesų

METAR: EFSI 060220Z AUTO 16004KT CAVOK 10/09 Q1008

Laikas: 06:11 (03:11 UTC)


TAF: trūkstamas

Orai ataskaitas ir orų prognozės (METAR, TAF).

turimą stotys yra geltonos ir raudonos taškus žemėlapyje.

Perkelti pele per norėdami pamatyti stoties vardą.

Tada spustelėkite, norėdami matyti oro stebėjimo ir prognozės.

Norėdami pakeisti žemėlapį: spustelėkite ant žalios mygtukų su juodo kryžiaus žemyn,; žalią mygtuką su brūkšneliu, jei norite nutolinti; arba žalių rodyklių gretimoms žemėlapius.


METAR-TAF: